createdAt,value
2022-10-30T00:01:32.787Z,174.52
2022-10-30T00:04:02.055Z,172.27
2022-10-30T00:06:31.414Z,179.02
2022-10-30T00:09:01.006Z,178.27
2022-10-30T00:11:30.699Z,177.82
2022-10-30T00:13:59.690Z,175.07
2022-10-30T00:16:29.771Z,171.68
2022-10-30T00:18:58.844Z,170.52
2022-10-30T00:21:27.945Z,167.27
2022-10-30T00:23:57.065Z,164.60
2022-10-30T00:26:26.685Z,165.88
2022-10-30T00:28:57.571Z,164.70
2022-10-30T00:31:26.684Z,162.07
2022-10-30T00:33:56.990Z,153.10
2022-10-30T00:36:26.118Z,155.82
2022-10-30T00:38:55.341Z,159.13
2022-10-30T00:41:26.338Z,148.70
2022-10-30T00:43:57.067Z,145.75
2022-10-30T00:46:40.857Z,146.93
2022-10-30T00:49:16.670Z,146.52
2022-10-30T00:51:51.867Z,143.70
2022-10-30T00:54:22.061Z,145.10
2022-10-30T00:56:54.085Z,142.30
2022-10-30T00:59:28.635Z,145.53
2022-10-30T01:02:02.385Z,148.23
2022-10-30T01:04:37.792Z,147.02
2022-10-30T01:07:20.757Z,148.40
2022-10-30T01:09:53.292Z,146.20
2022-10-30T01:12:26.271Z,156.45
2022-10-30T01:15:00.705Z,157.52
2022-10-30T01:17:45.595Z,233.52
2022-10-30T01:20:37.509Z,176.50
2022-10-30T01:23:32.013Z,175.85
2022-10-30T01:26:27.014Z,205.93
2022-10-30T01:29:11.155Z,166.70
2022-10-30T01:32:01.667Z,158.77
2022-10-30T01:34:32.456Z,313.95
2022-10-30T01:37:15.547Z,350.85
2022-10-30T01:39:46.872Z,187.75
2022-10-30T01:42:44.952Z,155.00
2022-10-30T01:45:50.463Z,157.30
2022-10-30T01:48:49.358Z,138.48
2022-10-30T01:51:41.443Z,133.75
2022-10-30T01:54:20.929Z,130.80
2022-10-30T01:57:08.708Z,129.50
2022-10-30T01:59:57.844Z,139.18
2022-10-30T02:02:28.169Z,123.32
2022-10-30T02:04:59.534Z,120.35
2022-10-30T02:07:29.541Z,120.40
2022-10-30T02:09:59.869Z,122.55
2022-10-30T02:12:31.521Z,121.63
2022-10-30T02:15:04.242Z,118.43
2022-10-30T02:17:34.243Z,121.63
2022-10-30T02:20:04.794Z,123.05
2022-10-30T02:22:34.809Z,121.15
2022-10-30T02:25:05.859Z,121.15
2022-10-30T02:27:36.534Z,124.07
2022-10-30T02:30:07.627Z,121.05
2022-10-30T02:32:40.901Z,126.97
2022-10-30T02:35:11.941Z,125.97
2022-10-30T02:37:43.951Z,126.53
2022-10-30T02:40:14.964Z,125.07
2022-10-30T02:42:45.400Z,129.20
2022-10-30T02:45:18.618Z,130.27
2022-10-30T02:47:49.034Z,125.03
2022-10-30T02:50:19.624Z,129.90
2022-10-30T02:52:49.412Z,129.23
2022-10-30T02:55:19.718Z,131.40
2022-10-30T02:57:50.911Z,129.25
2022-10-30T03:00:21.087Z,130.50
2022-10-30T03:02:57.811Z,127.72
2022-10-30T03:05:28.963Z,129.57
2022-10-30T03:07:59.924Z,126.75
2022-10-30T03:10:30.255Z,125.90
2022-10-30T03:13:02.389Z,127.35
2022-10-30T03:15:34.763Z,127.40
2022-10-30T03:18:06.547Z,127.28
2022-10-30T03:20:43.955Z,130.25
2022-10-30T03:23:14.513Z,131.98
2022-10-30T03:25:44.315Z,135.13
2022-10-30T03:28:14.524Z,135.18
2022-10-30T03:30:44.800Z,132.70
2022-10-30T03:33:15.741Z,137.15
2022-10-30T03:35:51.700Z,141.17
2022-10-30T03:38:23.093Z,140.35
2022-10-30T03:40:54.633Z,144.07
2022-10-30T03:43:24.967Z,144.65
2022-10-30T03:45:57.965Z,141.85
2022-10-30T03:48:30.581Z,139.43
2022-10-30T03:51:02.458Z,142.07
2022-10-30T03:53:33.473Z,143.50
2022-10-30T03:56:06.363Z,144.85
2022-10-30T03:58:46.120Z,143.32
2022-10-30T04:01:21.667Z,138.25
2022-10-30T04:03:59.017Z,142.43
2022-10-30T04:06:29.153Z,139.52
2022-10-30T04:08:59.086Z,141.50
2022-10-30T04:11:28.611Z,141.48
2022-10-30T04:13:57.724Z,137.32
2022-10-30T04:16:27.481Z,139.50
2022-10-30T04:19:01.863Z,137.93
2022-10-30T04:21:31.608Z,135.50
2022-10-30T04:24:00.755Z,134.45
2022-10-30T04:29:03.111Z,120.53
2022-10-30T04:31:33.010Z,122.90
2022-10-30T04:34:04.972Z,130.15
2022-10-30T04:36:35.149Z,129.93
2022-10-30T04:39:04.736Z,131.60
2022-10-30T04:41:35.514Z,132.85
2022-10-30T04:44:12.134Z,127.72
2022-10-30T04:46:41.622Z,121.22
2022-10-30T04:49:12.505Z,119.13
2022-10-30T04:51:42.103Z,116.55
2022-10-30T04:54:10.976Z,119.85
2022-10-30T04:56:40.321Z,116.93
2022-10-30T04:59:10.206Z,116.50
2022-10-30T05:01:39.820Z,114.82
2022-10-30T05:04:09.863Z,118.30
2022-10-30T05:06:40.807Z,112.78
2022-10-30T05:09:10.224Z,115.22
2022-10-30T05:11:41.646Z,107.75
2022-10-30T05:14:10.803Z,105.82
2022-10-30T05:16:39.856Z,99.68
2022-10-30T05:19:09.893Z,101.97
2022-10-30T05:21:41.276Z,95.50
2022-10-30T05:24:11.608Z,87.55
2022-10-30T05:26:45.272Z,90.53
2022-10-30T05:29:15.582Z,82.10
2022-10-30T05:31:44.670Z,102.70
2022-10-30T05:34:19.621Z,112.07
2022-10-30T05:36:53.490Z,108.85
2022-10-30T05:39:23.517Z,101.95
2022-10-30T05:41:53.431Z,96.88
2022-10-30T05:44:40.815Z,88.72
2022-10-30T05:47:14.114Z,93.10
2022-10-30T05:49:47.941Z,92.50
2022-10-30T05:52:20.995Z,90.82
2022-10-30T05:54:52.347Z,92.68
2022-10-30T05:57:43.149Z,91.20
2022-10-30T06:00:13.129Z,86.28
2022-10-30T06:05:16.323Z,91.40
2022-10-30T06:07:45.883Z,93.72
2022-10-30T06:10:15.038Z,88.82
2022-10-30T06:13:02.891Z,91.88
2022-10-30T06:15:41.306Z,89.22
2022-10-30T06:18:10.817Z,94.25
2022-10-30T06:20:48.354Z,89.25
2022-10-30T06:23:21.010Z,89.35
2022-10-30T06:25:55.449Z,87.25
2022-10-30T06:28:32.640Z,88.72
2022-10-30T06:31:02.914Z,86.93
2022-10-30T06:33:33.812Z,82.53
2022-10-30T06:36:03.829Z,79.97
2022-10-30T06:38:32.719Z,77.18
2022-10-30T06:41:02.840Z,69.05
2022-10-30T06:43:53.117Z,67.82
2022-10-30T06:46:27.488Z,68.28
2022-10-30T06:49:01.014Z,64.47
2022-10-30T06:51:31.220Z,74.75
2022-10-30T06:54:02.248Z,72.00
2022-10-30T06:56:40.184Z,72.03
2022-10-30T06:59:27.991Z,74.47
2022-10-30T07:02:23.166Z,66.40
2022-10-30T07:04:57.095Z,64.95
2022-10-30T07:07:26.613Z,73.15
2022-10-30T07:09:55.678Z,71.05
2022-10-30T07:12:38.968Z,69.97
2022-10-30T07:15:25.101Z,69.25
2022-10-30T07:18:18.189Z,67.05
2022-10-30T07:20:55.213Z,68.18
2022-10-30T07:23:25.947Z,69.13
2022-10-30T07:26:07.349Z,71.55
2022-10-30T07:28:46.157Z,55.50
2022-10-30T07:31:34.960Z,57.90
2022-10-30T07:34:29.538Z,64.72
2022-10-30T07:37:17.019Z,63.90
2022-10-30T07:40:12.772Z,68.68
2022-10-30T07:43:20.545Z,72.20
2022-10-30T07:46:14.640Z,71.13
2022-10-30T07:49:02.398Z,69.50
2022-10-30T07:51:45.110Z,79.30
2022-10-30T07:54:15.403Z,78.15
2022-10-30T07:56:45.573Z,82.10
2022-10-30T07:59:33.118Z,84.35
2022-10-30T08:02:15.571Z,89.90
2022-10-30T08:05:01.268Z,92.72
2022-10-30T08:07:50.340Z,108.15
2022-10-30T08:10:19.672Z,114.63
2022-10-30T08:12:49.222Z,113.13
2022-10-30T08:15:19.255Z,115.40
2022-10-30T08:17:53.467Z,112.47
2022-10-30T08:20:25.791Z,114.38
2022-10-30T08:22:57.101Z,113.13
2022-10-30T08:25:30.079Z,112.00
2022-10-30T08:28:05.804Z,109.18
2022-10-30T08:30:40.158Z,112.78
2022-10-30T08:33:16.714Z,107.95
2022-10-30T08:36:00.482Z,103.45
2022-10-30T08:38:31.101Z,106.35
2022-10-30T08:41:23.345Z,102.07
2022-10-30T08:43:55.077Z,102.13
2022-10-30T08:46:28.284Z,101.55
2022-10-30T08:48:57.576Z,102.65
2022-10-30T08:51:26.497Z,108.53
2022-10-30T08:53:56.841Z,106.97
2022-10-30T08:56:25.757Z,106.55
2022-10-30T08:59:07.658Z,105.47
2022-10-30T09:01:38.217Z,103.20
2022-10-30T09:04:22.927Z,102.40
2022-10-30T09:07:27.105Z,102.57
2022-10-30T09:10:26.109Z,99.60
2022-10-30T09:12:59.894Z,96.65
2022-10-30T09:15:31.285Z,99.30
2022-10-30T09:18:03.955Z,98.35
2022-10-30T09:23:02.864Z,98.25
2022-10-30T09:25:32.488Z,97.80
2022-10-30T09:28:21.622Z,92.90
2022-10-30T09:31:11.240Z,93.22
2022-10-30T09:33:40.880Z,94.65
2022-10-30T09:36:28.355Z,92.40
2022-10-30T09:38:58.630Z,93.10
2022-10-30T09:41:50.274Z,91.60
2022-10-30T09:44:27.693Z,86.60
2022-10-30T09:47:37.741Z,86.72
2022-10-30T09:50:13.200Z,85.35
2022-10-30T09:53:02.694Z,86.55
2022-10-30T09:55:43.880Z,85.85
2022-10-30T09:58:25.541Z,81.22
2022-10-30T10:01:06.981Z,78.30
2022-10-30T10:04:07.469Z,77.65
2022-10-30T10:07:09.053Z,75.77
2022-10-30T10:09:54.076Z,75.43
2022-10-30T10:12:48.174Z,74.13
2022-10-30T10:15:36.254Z,70.00
2022-10-30T10:18:14.436Z,71.38
2022-10-30T10:20:46.986Z,72.57
2022-10-30T10:23:32.668Z,68.30
2022-10-30T10:26:11.673Z,71.15
2022-10-30T10:28:56.092Z,72.35
2022-10-30T10:31:45.074Z,68.22
2022-10-30T10:34:32.725Z,70.03
2022-10-30T10:37:07.578Z,67.95
2022-10-30T10:40:17.790Z,71.95
2022-10-30T10:43:12.272Z,66.18
2022-10-30T10:45:56.826Z,66.95
2022-10-30T10:48:49.588Z,67.30
2022-10-30T10:54:13.266Z,61.95
2022-10-30T10:56:46.463Z,64.22
2022-10-30T10:59:21.386Z,66.93
2022-10-30T11:02:12.620Z,64.00
2022-10-30T11:04:44.955Z,62.22
2022-10-30T11:07:26.350Z,65.18
2022-10-30T11:09:57.725Z,64.63
2022-10-30T11:12:36.505Z,65.15
2022-10-30T11:15:39.788Z,61.90
2022-10-30T11:18:12.014Z,64.88
2022-10-30T11:21:04.487Z,64.40
2022-10-30T11:23:42.227Z,66.43
2022-10-30T11:26:23.405Z,66.75
2022-10-30T11:29:01.311Z,67.63
2022-10-30T11:31:36.045Z,65.78
2022-10-30T11:34:21.286Z,64.90
2022-10-30T11:36:52.352Z,67.65
2022-10-30T11:39:42.345Z,67.95
2022-10-30T11:42:16.671Z,64.85
2022-10-30T11:44:52.236Z,66.20
2022-10-30T11:50:09.026Z,68.15
2022-10-30T11:52:42.670Z,67.13
2022-10-30T11:55:28.532Z,70.15
2022-10-30T11:57:59.715Z,69.63
2022-10-30T12:00:32.799Z,69.15
2022-10-30T12:03:03.141Z,72.22
2022-10-30T12:05:37.437Z,74.93
2022-10-30T12:08:09.548Z,79.88
2022-10-30T12:10:56.704Z,82.25
2022-10-30T12:13:28.102Z,88.57
2022-10-30T12:16:19.279Z,89.70
2022-10-30T12:19:00.532Z,90.38
2022-10-30T12:21:37.336Z,90.25
2022-10-30T12:24:14.664Z,95.88
2022-10-30T12:26:50.680Z,95.75
2022-10-30T12:29:24.365Z,95.63
2022-10-30T12:32:06.894Z,100.13
2022-10-30T12:34:46.110Z,100.00
2022-10-30T12:37:25.062Z,104.32
2022-10-30T12:40:10.552Z,107.03
2022-10-30T12:42:46.370Z,111.50
2022-10-30T12:45:22.144Z,105.38
2022-10-30T12:48:01.586Z,100.43
2022-10-30T12:50:42.126Z,99.57
2022-10-30T12:53:33.641Z,97.00
2022-10-30T12:56:26.299Z,97.05
2022-10-30T13:01:43.784Z,96.15
2022-10-30T13:04:35.748Z,101.22
2022-10-30T13:07:48.664Z,103.13
2022-10-30T13:10:34.185Z,109.03
2022-10-30T13:13:24.865Z,106.13
2022-10-30T13:16:00.925Z,104.70
2022-10-30T13:18:33.568Z,108.15
2022-10-30T13:21:14.101Z,106.07
2022-10-30T13:23:50.173Z,108.95
2022-10-30T13:26:29.230Z,106.68
2022-10-30T13:29:29.824Z,106.10
2022-10-30T13:32:09.181Z,103.45
2022-10-30T13:34:53.702Z,103.28
2022-10-30T13:37:27.348Z,99.85
2022-10-30T13:40:25.457Z,103.25
2022-10-30T13:43:20.410Z,98.88
2022-10-30T13:46:08.378Z,101.65
2022-10-30T13:48:46.920Z,104.20
2022-10-30T13:51:49.085Z,105.20
2022-10-30T13:54:26.966Z,101.25
2022-10-30T13:57:07.930Z,106.85
2022-10-30T13:59:51.301Z,107.82
2022-10-30T14:02:49.068Z,107.43
2022-10-30T14:05:41.703Z,105.68
2022-10-30T14:08:10.915Z,110.18
2022-10-30T14:10:49.466Z,114.72
2022-10-30T14:13:27.964Z,116.72
2022-10-30T14:16:08.546Z,121.88
2022-10-30T14:19:08.668Z,119.25
2022-10-30T14:21:51.885Z,114.63
2022-10-30T14:24:34.734Z,119.45
2022-10-30T14:29:35.726Z,126.33
2022-10-30T14:32:20.604Z,133.48
2022-10-30T14:34:52.735Z,134.38
2022-10-30T14:37:25.418Z,139.82
2022-10-30T14:39:56.427Z,137.82
2022-10-30T14:42:33.148Z,139.10
2022-10-30T14:45:26.331Z,150.93
2022-10-30T14:48:23.010Z,146.95
2022-10-30T14:51:14.005Z,142.18
2022-10-30T14:54:05.467Z,135.35
2022-10-30T14:56:55.078Z,139.18
2022-10-30T14:59:32.865Z,135.18
2022-10-30T15:02:02.327Z,134.60
2022-10-30T15:04:37.351Z,136.68
2022-10-30T15:07:35.180Z,141.48
2022-10-30T15:10:19.474Z,139.20
2022-10-30T15:13:02.491Z,150.13
2022-10-30T15:15:32.707Z,146.60
2022-10-30T15:18:09.751Z,147.57
2022-10-30T15:20:41.181Z,148.85
2022-10-30T15:23:24.243Z,143.13
2022-10-30T15:25:56.869Z,138.43
2022-10-30T15:33:38.809Z,134.38
2022-10-30T15:36:17.524Z,137.18
2022-10-30T15:39:03.987Z,139.25
2022-10-30T15:41:36.401Z,135.63
2022-10-30T15:44:05.940Z,136.73
2022-10-30T15:46:35.106Z,141.93
2022-10-30T15:49:06.429Z,139.30
2022-10-30T15:51:36.864Z,139.20
2022-10-30T15:54:07.926Z,137.98
2022-10-30T15:57:17.823Z,135.57
2022-10-30T15:59:37.712Z,132.07
2022-10-30T16:02:25.202Z,136.57
2022-10-30T16:04:56.000Z,134.18
2022-10-30T16:07:27.792Z,133.15
2022-10-30T16:09:58.604Z,130.43
2022-10-30T16:12:30.826Z,128.73
2022-10-30T16:15:07.261Z,125.55
2022-10-30T16:17:37.104Z,123.43
2022-10-30T16:20:06.946Z,127.03
2022-10-30T16:22:40.530Z,123.68
2022-10-30T16:25:14.027Z,124.95
2022-10-30T16:27:47.730Z,123.93
2022-10-30T16:30:18.468Z,123.43
2022-10-30T16:32:56.898Z,127.15
2022-10-30T16:35:27.603Z,125.38
2022-10-30T16:37:59.109Z,126.68
2022-10-30T16:40:30.000Z,124.95
2022-10-30T16:43:02.087Z,127.82
2022-10-30T16:48:14.317Z,123.20
2022-10-30T16:50:43.649Z,126.30
2022-10-30T16:53:25.654Z,130.43
2022-10-30T16:55:57.636Z,143.15
2022-10-30T16:58:33.830Z,146.60
2022-10-30T17:01:07.118Z,146.82
2022-10-30T17:03:41.528Z,144.82
2022-10-30T17:06:30.225Z,143.98
2022-10-30T17:09:02.231Z,150.02
2022-10-30T17:11:42.822Z,147.50
2022-10-30T17:14:22.843Z,143.82
2022-10-30T17:16:57.900Z,149.73
2022-10-30T17:19:33.156Z,148.02
2022-10-30T17:22:12.290Z,138.57
2022-10-30T17:24:42.190Z,144.15
2022-10-30T17:27:34.983Z,142.00
2022-10-30T17:30:05.385Z,144.05
2022-10-30T17:32:45.772Z,148.00
2022-10-30T17:35:20.663Z,143.60
2022-10-30T17:37:49.924Z,143.63
2022-10-30T17:40:22.228Z,148.30
2022-10-30T17:42:51.365Z,151.02
2022-10-30T17:45:20.613Z,147.40
2022-10-30T17:47:49.883Z,151.75
2022-10-30T17:50:19.122Z,152.38
2022-10-30T17:52:47.983Z,147.05
2022-10-30T17:55:31.329Z,148.10
2022-10-30T17:58:00.546Z,143.68
2022-10-30T18:00:30.319Z,144.25
2022-10-30T18:02:59.804Z,145.57
2022-10-30T18:05:31.183Z,138.38
2022-10-30T18:08:01.065Z,138.70
2022-10-30T18:10:31.728Z,144.52
2022-10-30T18:13:01.177Z,141.93
2022-10-30T18:15:40.341Z,145.38
2022-10-30T18:18:09.686Z,146.65
2022-10-30T18:20:39.735Z,141.38
2022-10-30T18:23:46.577Z,142.43
2022-10-30T18:26:19.164Z,143.45
2022-10-30T18:28:50.336Z,146.07
2022-10-30T18:31:23.035Z,145.43
2022-10-30T18:33:53.231Z,147.70
2022-10-30T18:36:24.744Z,146.30
2022-10-30T18:38:55.814Z,150.32
2022-10-30T18:41:35.922Z,148.73
2022-10-30T18:44:06.045Z,148.77
2022-10-30T18:46:35.953Z,147.40
2022-10-30T18:49:05.414Z,142.15
2022-10-30T18:51:34.727Z,145.02
2022-10-30T18:54:04.393Z,147.82
2022-10-30T18:56:36.340Z,152.55
2022-10-30T18:59:05.610Z,156.13
2022-10-30T19:01:37.787Z,149.70
2022-10-30T19:04:11.336Z,152.50
2022-10-30T19:06:41.508Z,151.20
2022-10-30T19:09:10.444Z,156.80
2022-10-30T19:11:43.297Z,149.75
2022-10-30T19:14:15.476Z,154.75
2022-10-30T19:16:44.568Z,157.98
2022-10-30T19:19:16.701Z,154.93
2022-10-30T19:21:46.046Z,158.80
2022-10-30T19:24:16.642Z,164.05
2022-10-30T19:26:45.850Z,157.88
2022-10-30T19:29:14.736Z,151.30
2022-10-30T19:31:43.890Z,153.73
2022-10-30T19:34:12.936Z,158.57
2022-10-30T19:36:44.110Z,155.63
2022-10-30T19:39:19.848Z,154.63
2022-10-30T19:41:49.147Z,156.95
2022-10-30T19:44:18.106Z,159.70
2022-10-30T19:46:47.059Z,157.88
2022-10-30T19:49:21.302Z,158.00
2022-10-30T19:51:50.520Z,158.85
2022-10-30T19:54:19.632Z,155.88
2022-10-30T19:56:49.569Z,153.00
2022-10-30T19:59:18.714Z,152.90
2022-10-30T20:01:48.044Z,152.07
2022-10-30T20:04:16.928Z,148.75
2022-10-30T20:06:46.201Z,152.07
2022-10-30T20:09:15.826Z,150.00
2022-10-30T20:11:44.652Z,152.63
2022-10-30T20:14:14.359Z,155.52
2022-10-30T20:16:43.639Z,147.10
2022-10-30T20:19:30.493Z,150.55
2022-10-30T20:21:59.968Z,151.65
2022-10-30T20:24:29.001Z,150.63
2022-10-30T20:26:58.439Z,146.25
2022-10-30T20:29:27.811Z,143.65
2022-10-30T20:31:57.085Z,143.98
2022-10-30T20:34:25.928Z,145.80
2022-10-30T20:36:55.744Z,150.65
2022-10-30T20:39:25.037Z,141.95
2022-10-30T20:41:54.414Z,148.63
2022-10-30T20:44:23.635Z,145.50
2022-10-30T20:46:53.012Z,154.63
2022-10-30T20:49:22.240Z,157.60
2022-10-30T20:51:52.079Z,162.15
2022-10-30T20:54:20.975Z,166.13
2022-10-30T20:56:50.091Z,166.30
2022-10-30T20:59:19.439Z,174.57
2022-10-30T21:01:48.330Z,171.05
2022-10-30T21:04:17.456Z,173.73
2022-10-30T21:06:46.611Z,169.32
2022-10-30T21:09:16.126Z,172.98
2022-10-30T21:11:45.243Z,167.35
2022-10-30T21:14:15.145Z,172.07
2022-10-30T21:16:44.612Z,177.95
2022-10-30T21:19:13.742Z,173.90
2022-10-30T21:21:42.966Z,187.10
2022-10-30T21:24:12.114Z,177.32
2022-10-30T21:26:41.200Z,175.65
2022-10-30T21:29:11.028Z,173.82
2022-10-30T21:31:40.100Z,179.60
2022-10-30T21:34:09.945Z,173.85
2022-10-30T21:36:38.988Z,179.85
2022-10-30T21:39:08.535Z,184.73
2022-10-30T21:41:37.436Z,176.55
2022-10-30T21:44:06.561Z,167.77
2022-10-30T21:46:36.375Z,169.82
2022-10-30T21:49:07.411Z,173.43
2022-10-30T21:51:37.108Z,168.80
2022-10-30T21:54:06.162Z,170.45
2022-10-30T21:56:36.475Z,161.52
2022-10-30T21:59:07.868Z,167.32
2022-10-30T22:01:38.593Z,171.73
2022-10-30T22:04:11.052Z,163.65
2022-10-30T22:06:45.006Z,165.80
2022-10-30T22:09:17.300Z,166.93
2022-10-30T22:11:47.165Z,162.98
2022-10-30T22:14:16.194Z,159.57
2022-10-30T22:16:46.337Z,156.05
2022-10-30T22:19:15.770Z,158.13
2022-10-30T22:21:44.687Z,151.60
2022-10-30T22:24:15.064Z,150.65
2022-10-30T22:26:44.651Z,154.35
2022-10-30T22:29:13.568Z,153.07
2022-10-30T22:31:43.392Z,150.80
2022-10-30T22:34:12.700Z,149.75
2022-10-30T22:36:41.868Z,149.77
2022-10-30T22:39:14.751Z,148.85
2022-10-30T22:41:44.417Z,149.55
2022-10-30T22:44:16.285Z,147.40
2022-10-30T22:46:45.559Z,146.17
2022-10-30T22:49:14.886Z,147.98
2022-10-30T22:51:43.821Z,150.75
2022-10-30T22:54:15.825Z,151.43
2022-10-30T22:56:44.942Z,153.00
2022-10-30T22:59:15.974Z,153.13
2022-10-30T23:01:45.205Z,153.13
2022-10-30T23:04:17.887Z,152.52
2022-10-30T23:06:47.039Z,152.38
2022-10-30T23:09:24.444Z,153.30
2022-10-30T23:11:53.552Z,154.80
2022-10-30T23:14:22.419Z,153.02
2022-10-30T23:16:51.691Z,154.95
2022-10-30T23:19:20.945Z,154.80
2022-10-30T23:21:49.813Z,152.85
2022-10-30T23:24:19.127Z,160.45
2022-10-30T23:26:47.924Z,159.40
2022-10-30T23:29:17.575Z,160.98
2022-10-30T23:31:47.479Z,161.00
2022-10-30T23:34:19.326Z,157.93
2022-10-30T23:36:48.711Z,160.13
2022-10-30T23:39:19.062Z,159.88
2022-10-30T23:41:48.901Z,163.85
2022-10-30T23:44:18.333Z,167.90
2022-10-30T23:46:47.391Z,164.68
2022-10-30T23:49:16.560Z,162.60
2022-10-30T23:51:45.642Z,163.85
2022-10-30T23:54:14.881Z,163.88
2022-10-30T23:56:43.892Z,160.98
2022-10-30T23:59:12.893Z,155.38
